Torre De Belem — CSIO — position and weather

sailwx.info

Track history (hours):
 
Tides and Currents Weather Stations Pressure Air Temp Water Temp Dewpoint Dewpoint Depression Visibility Wind Speed Wind Dir Waves Ship Positions

Torre De Belem

Last reported at 2017-May-27 12:39 UTC. Time now 2017-May-27 15:53 UTC.
Position N 38°42' W 009°25'.

Length 14 m.

MMSI: 263671850.

Date/timePositionNaut miles runAvg speedWind from/ knotsBaromVisibWave heightAir tempDewpointWater temp
2017-May-27 12:39N 38°42' W 009°25'1 7.2
2017-May-27 12:31N 38°41' W 009°24'0 0.6
2017-May-27 12:00N 38°41' W 009°24'1 0.5
2017-May-27 10:32N 38°42' W 009°25'0 0.8
2017-May-27 10:30N 38°42' W 009°25'3 5.8
2017-May-27 10:00N 38°39' W 009°24'3 0.4
2017-May-27 02:18N 38°42' W 009°25'1 4.2
2017-May-27 02:01N 38°40' W 009°25'1 0.3
2017-May-26 21:08N 38°42' W 009°25'0 3.5
2017-May-26 21:00N 38°41' W 009°25'2 4.5
2017-May-26 20:31N 38°39' W 009°24'3 0.1
2017-May-25 15:51N 38°42' W 009°25'2 5.8
2017-May-25 15:30N 38°40' W 009°25'2 0.6
2017-May-25 12:12N 38°42' W 009°25'210.5
2017-May-25 12:00N 38°40' W 009°24'3 5.3
2017-May-25 11:30N 38°38' W 009°21'3 5.9
2017-May-25 11:00N 38°40' W 009°24'2 3.3
2017-May-25 10:30N 38°42' W 009°25'0 0.0
2017-May-25 10:00N 38°42' W 009°25'0 0.0
2017-May-24 23:47N 38°42' W 009°25'312.2
2017-May-24 23:30N 38°39' W 009°23'3 6.4
2017-May-24 23:00N 38°42' W 009°25'0 0.0
2017-May-24 19:00N 38°42' W 009°25'510.5
2017-May-24 18:31N 38°41' W 009°18'4 1.0
2017-May-24 14:48N 38°42' W 009°14'0 0.0
2017-May-24 14:30N 38°42' W 009°14'0 0.0
2017-May-24 06:21N 38°42' W 009°14'412.0
2017-May-24 06:00N 38°40' W 009°19'4 8.6
2017-May-24 05:30N 38°41' W 009°24'1 0.1
2017-May-23 20:14N 38°42' W 009°25'210.9
2017-May-23 20:00N 38°39' W 009°24'2 0.8
2017-May-23 17:06N 38°42' W 009°25'0 2.8
2017-May-23 17:00N 38°42' W 009°25'0 0.1
2017-May-23 12:06N 38°42' W 009°25'0 2.5
2017-May-23 12:01N 38°42' W 009°25'0 0.0
2017-May-23 04:37N 38°42' W 009°25'0 3.3
2017-May-23 04:30N 38°41' W 009°25'5 9.2
2017-May-23 04:00N 38°41' W 009°19'4 0.6
2017-May-22 21:56N 38°42' W 009°14'615.1
2017-May-22 21:30N 38°38' W 009°21'5 8.9
2017-May-22 21:00N 38°42' W 009°25'0 0.0
2017-May-22 10:24N 38°42' W 009°25'0 0.2
2017-May-22 10:00N 38°42' W 009°25'0 0.0
2017-May-22 04:14N 38°42' W 009°25'1 3.1
2017-May-22 04:00N 38°41' W 009°25'1 0.1
2017-May-21 23:03N 38°42' W 009°25'0 2.9
2017-May-21 23:00N 38°42' W 009°25'5 9.6
2017-May-21 22:30N 38°37' W 009°23'3 5.6
2017-May-21 22:00N 38°40' W 009°24'2 0.2
2017-May-21 11:25N 38°42' W 009°25'0 0.0
2017-May-21 11:00N 38°42' W 009°25'0 0.0
2017-May-21 04:12N 38°42' W 009°25'1 6.3
2017-May-21 04:00N 38°40' W 009°25'1 0.1
2017-May-20 19:19N 38°42' W 009°25'3 8.4
2017-May-20 19:01N 38°41' W 009°22'3 0.3
2017-May-20 10:45N 38°42' W 009°25'311.0
2017-May-20 10:31N 38°39' W 009°24'2 3.3
2017-May-20 10:00N 38°38' W 009°22'4 7.9
2017-May-20 09:30N 38°42' W 009°25'0 0.0
2017-May-20 09:00N 38°42' W 009°25'0 0.0
2017-May-20 07:46N 38°42' W 009°25'1 3.1
2017-May-20 07:30N 38°41' W 009°24'1 0.1
2017-May-19 20:00N 38°42' W 009°25'0 0.0
2017-May-19 19:31N 38°42' W 009°25'0 0.0
2017-May-19 09:29N 38°42' W 009°25'0 0.2
2017-May-19 09:00N 38°42' W 009°25'0 0.0
2017-May-19 06:12N 38°42' W 009°25'211.5
2017-May-19 06:00N 38°39' W 009°24'2 4.6
2017-May-19 05:30N 38°37' W 009°23'5 8.8
2017-May-19 05:00N 38°42' W 009°25'0 0.0
2017-May-19 04:29N 38°42' W 009°25'0 0.0
2017-May-19 04:00N 38°42' W 009°25'0 0.0
2017-May-19 03:30N 38°42' W 009°25'0 0.0
2017-May-19 03:00N 38°42' W 009°25'0 0.0
2017-May-19 02:30N 38°42' W 009°25'1 2.2
2017-May-19 02:00N 38°41' W 009°25'1 2.2
2017-May-19 01:30N 38°42' W 009°25'0 0.4
2017-May-19 01:00N 38°42' W 009°25'0 0.0
2017-May-19 00:30N 38°42' W 009°25'0 0.0
2017-May-18 23:59N 38°42' W 009°25'0 0.0
2017-May-18 23:30N 38°42' W 009°25'0 0.0
2017-May-18 23:00N 38°42' W 009°25'0 0.0
2017-May-18 22:30N 38°42' W 009°25'0 0.0
2017-May-18 22:00N 38°42' W 009°25'0 0.0
2017-May-18 21:30N 38°42' W 009°25'0 0.0
2017-May-18 21:00N 38°42' W 009°25'0 0.0
2017-May-18 20:29N 38°42' W 009°25'0 0.0
2017-May-18 19:57N 38°42' W 009°25'0 0.0
2017-May-18 19:30N 38°42' W 009°25'5 9.9
2017-May-18 19:00N 38°37' W 009°23'5 0.4
2017-May-18 05:14N 38°42' W 009°25'1 5.7
2017-May-18 05:00N 38°40' W 009°25'1 0.3
2017-May-18 01:07N 38°42' W 009°25'1 4.4
2017-May-18 00:59N 38°41' W 009°24'1 2.5
2017-May-18 00:30N 38°40' W 009°24'2 0.2
2017-May-17 16:23N 38°42' W 009°25'513.2
2017-May-17 16:01N 38°37' W 009°23'510.1
2017-May-17 15:30N 38°42' W 009°25'0 0.2
2017-May-17 14:59N 38°42' W 009°25'2 4.3
2017-May-17 14:30N 38°40' W 009°27'  
Track history (hours):
 
Tides and Currents Weather Stations Pressure Air Temp Water Temp Dewpoint Dewpoint Depression Visibility Wind Speed Wind Dir Waves Ship Positions

Torre De Belem

Last reported at 2017-May-27 12:39 UTC. Time now 2017-May-27 15:53 UTC.
Position N 38°42' W 009°25'.

Length 14 m.

MMSI: 263671850.

Date/timePositionNaut miles runAvg speedWind from/ knotsBaromVisibWave heightAir tempDewpointWater temp
2017-May-27 12:39N 38°42' W 009°25'1 7.2
2017-May-27 12:31N 38°41' W 009°24'0 0.6
2017-May-27 12:00N 38°41' W 009°24'1 0.5
2017-May-27 10:32N 38°42' W 009°25'0 0.8
2017-May-27 10:30N 38°42' W 009°25'3 5.8
2017-May-27 10:00N 38°39' W 009°24'3 0.4
2017-May-27 02:18N 38°42' W 009°25'1 4.2
2017-May-27 02:01N 38°40' W 009°25'1 0.3
2017-May-26 21:08N 38°42' W 009°25'0 3.5
2017-May-26 21:00N 38°41' W 009°25'2 4.5
2017-May-26 20:31N 38°39' W 009°24'3 0.1
2017-May-25 15:51N 38°42' W 009°25'2 5.8
2017-May-25 15:30N 38°40' W 009°25'2 0.6
2017-May-25 12:12N 38°42' W 009°25'210.5
2017-May-25 12:00N 38°40' W 009°24'3 5.3
2017-May-25 11:30N 38°38' W 009°21'3 5.9
2017-May-25 11:00N 38°40' W 009°24'2 3.3
2017-May-25 10:30N 38°42' W 009°25'0 0.0
2017-May-25 10:00N 38°42' W 009°25'0 0.0
2017-May-24 23:47N 38°42' W 009°25'312.2
2017-May-24 23:30N 38°39' W 009°23'3 6.4
2017-May-24 23:00N 38°42' W 009°25'0 0.0
2017-May-24 19:00N 38°42' W 009°25'510.5
2017-May-24 18:31N 38°41' W 009°18'4 1.0
2017-May-24 14:48N 38°42' W 009°14'0 0.0
2017-May-24 14:30N 38°42' W 009°14'0 0.0
2017-May-24 06:21N 38°42' W 009°14'412.0
2017-May-24 06:00N 38°40' W 009°19'4 8.6
2017-May-24 05:30N 38°41' W 009°24'1 0.1
2017-May-23 20:14N 38°42' W 009°25'210.9
2017-May-23 20:00N 38°39' W 009°24'2 0.8
2017-May-23 17:06N 38°42' W 009°25'0 2.8
2017-May-23 17:00N 38°42' W 009°25'0 0.1
2017-May-23 12:06N 38°42' W 009°25'0 2.5
2017-May-23 12:01N 38°42' W 009°25'0 0.0
2017-May-23 04:37N 38°42' W 009°25'0 3.3
2017-May-23 04:30N 38°41' W 009°25'5 9.2
2017-May-23 04:00N 38°41' W 009°19'4 0.6
2017-May-22 21:56N 38°42' W 009°14'615.1
2017-May-22 21:30N 38°38' W 009°21'5 8.9
2017-May-22 21:00N 38°42' W 009°25'0 0.0
2017-May-22 10:24N 38°42' W 009°25'0 0.2
2017-May-22 10:00N 38°42' W 009°25'0 0.0
2017-May-22 04:14N 38°42' W 009°25'1 3.1
2017-May-22 04:00N 38°41' W 009°25'1 0.1
2017-May-21 23:03N 38°42' W 009°25'0 2.9
2017-May-21 23:00N 38°42' W 009°25'5 9.6
2017-May-21 22:30N 38°37' W 009°23'3 5.6
2017-May-21 22:00N 38°40' W 009°24'2 0.2
2017-May-21 11:25N 38°42' W 009°25'0 0.0
2017-May-21 11:00N 38°42' W 009°25'0 0.0
2017-May-21 04:12N 38°42' W 009°25'1 6.3
2017-May-21 04:00N 38°40' W 009°25'1 0.1
2017-May-20 19:19N 38°42' W 009°25'3 8.4
2017-May-20 19:01N 38°41' W 009°22'3 0.3
2017-May-20 10:45N 38°42' W 009°25'311.0
2017-May-20 10:31N 38°39' W 009°24'2 3.3
2017-May-20 10:00N 38°38' W 009°22'4 7.9
2017-May-20 09:30N 38°42' W 009°25'0 0.0
2017-May-20 09:00N 38°42' W 009°25'0 0.0
2017-May-20 07:46N 38°42' W 009°25'1 3.1
2017-May-20 07:30N 38°41' W 009°24'1 0.1
2017-May-19 20:00N 38°42' W 009°25'0 0.0
2017-May-19 19:31N 38°42' W 009°25'0 0.0
2017-May-19 09:29N 38°42' W 009°25'0 0.2
2017-May-19 09:00N 38°42' W 009°25'0 0.0
2017-May-19 06:12N 38°42' W 009°25'211.5
2017-May-19 06:00N 38°39' W 009°24'2 4.6
2017-May-19 05:30N 38°37' W 009°23'5 8.8
2017-May-19 05:00N 38°42' W 009°25'0 0.0
2017-May-19 04:29N 38°42' W 009°25'0 0.0
2017-May-19 04:00N 38°42' W 009°25'0 0.0
2017-May-19 03:30N 38°42' W 009°25'0 0.0
2017-May-19 03:00N 38°42' W 009°25'0 0.0
2017-May-19 02:30N 38°42' W 009°25'1 2.2
2017-May-19 02:00N 38°41' W 009°25'1 2.2
2017-May-19 01:30N 38°42' W 009°25'0 0.4
2017-May-19 01:00N 38°42' W 009°25'0 0.0
2017-May-19 00:30N 38°42' W 009°25'0 0.0
2017-May-18 23:59N 38°42' W 009°25'0 0.0
2017-May-18 23:30N 38°42' W 009°25'0 0.0
2017-May-18 23:00N 38°42' W 009°25'0 0.0
2017-May-18 22:30N 38°42' W 009°25'0 0.0
2017-May-18 22:00N 38°42' W 009°25'0 0.0
2017-May-18 21:30N 38°42' W 009°25'0 0.0
2017-May-18 21:00N 38°42' W 009°25'0 0.0
2017-May-18 20:29N 38°42' W 009°25'0 0.0
2017-May-18 19:57N 38°42' W 009°25'0 0.0
2017-May-18 19:30N 38°42' W 009°25'5 9.9
2017-May-18 19:00N 38°37' W 009°23'5 0.4
2017-May-18 05:14N 38°42' W 009°25'1 5.7
2017-May-18 05:00N 38°40' W 009°25'1 0.3
2017-May-18 01:07N 38°42' W 009°25'1 4.4
2017-May-18 00:59N 38°41' W 009°24'1 2.5
2017-May-18 00:30N 38°40' W 009°24'2 0.2
2017-May-17 16:23N 38°42' W 009°25'513.2
2017-May-17 16:01N 38°37' W 009°23'510.1
2017-May-17 15:30N 38°42' W 009°25'0 0.2
2017-May-17 14:59N 38°42' W 009°25'2 4.3
2017-May-17 14:30N 38°40' W 009°27'  

Dump ship's entire track history